Albrook, Panama

8:29 PM EST on December 18, 2014 (GMT -0500)
Villa de las Fuentes 2 | Change Station
CLOSE
Current Station
Personal Weather Station
Location: Panama, PANAMA
Elevation: 167 ft
Nearby Weather Stations

Elev 167 ft 9.01 °N, 79.54 °W | Updated 21 seconds ago

Partly Cloudy
Partly Cloudy
77.5 °F
Feels Like 79 °F
N
0.0
Wind Variable Wind from WSW
Gusts 0.0 mph

Today
High -- | Low -- °F
--% Chance of Precip.
Yesterday
High -- | Low -- °F
Precip. -- in
6:26 AM 6:03 PM
Waning Crescent, 11% visible
Pressure 29.86 in
Visibility 6.2 miles
Clouds Few 1800 ft
Heat Index 79 °F
Dew Point 76 °F
Humidity 95%
Rainfall 0.89 in
Snow Depth Not available.
UV 0.0 out of 12
Pollen Not available.
Air Quality Not available.
Flu Activity Not available.
METAR MPMG 190100Z 33004KT 9999 FEW018 26/24 Q1011 NOSIG

More Conditions Fewer Conditions

Pressure 29.86 in
Visibility 6.2 miles
Clouds Few 1800 ft
Heat Index 79 °F
Dew Point 76 °F
Humidity 95%
Rainfall 0.89 in
Snow Depth Not available.
UV 0.0 out of 12
Pollen Not available.
Air Quality Not available.
Flu Activity Not available.
METAR MPMG 190100Z 33004KT 9999 FEW018 26/24 Q1011 NOSIG

More Conditions Fewer Conditions

10-Day Weather Forecast

Almanac

Astronomy

Dec. 18, 2014 Rise Set
Actual Time
Civil Twilight
Nautical Twilight
Astronomical Twilight
Moon
Length of Visible Light
Length of Day
Tomorrow will be .
, % of the Moon is Illuminated

Today's Extremes

Country Highs Country Lows

Community

WunderPhotos

Upload Photos

1,779,032 photos uploaded!

WunderBlogs® & News

Nearby

Air Quality

  Air Quality AQ Index Pollutant
Not available.

Snow Depth

Station Depth Elevation

Earthquake Activity

City Distance Mag. Time & Date
Minimum magnitude displayed is 2.5.

Coastal Water Temperatures

Place Temperature

Nearby Weather Stations